sensor_id;sensor_type;location;lat;lon;timestamp;pressure;altitude;pressure_sealevel;temperature;humidity
36242;BME280;22283;42.748;12.732;2022-09-27T00:04:13;97012.19;;;15.83;100.00
36242;BME280;22283;42.748;12.732;2022-09-27T00:09:14;97012.00;;;15.92;100.00
36242;BME280;22283;42.748;12.732;2022-09-27T00:14:15;97022.81;;;15.91;100.00
36242;BME280;22283;42.748;12.732;2022-09-27T00:19:18;97009.88;;;15.88;100.00
36242;BME280;22283;42.748;12.732;2022-09-27T00:24:21;97017.13;;;16.02;98.39
36242;BME280;22283;42.748;12.732;2022-09-27T00:29:22;97023.56;;;16.16;96.99
36242;BME280;22283;42.748;12.732;2022-09-27T00:34:24;97010.72;;;16.11;97.44
36242;BME280;22283;42.748;12.732;2022-09-27T00:39:25;97008.84;;;15.89;98.97
36242;BME280;22283;42.748;12.732;2022-09-27T00:49:59;96988.69;;;15.86;99.07
36242;BME280;22283;42.748;12.732;2022-09-27T00:55:07;96986.34;;;15.83;99.13
36242;BME280;22283;42.748;12.732;2022-09-27T01:00:10;96983.53;;;15.85;99.02
36242;BME280;22283;42.748;12.732;2022-09-27T01:05:14;96976.53;;;15.76;99.69
36242;BME280;22283;42.748;12.732;2022-09-27T01:10:15;96982.41;;;15.71;99.85
36242;BME280;22283;42.748;12.732;2022-09-27T01:15:28;96991.22;;;15.63;100.00
36242;BME280;22283;42.748;12.732;2022-09-27T01:47:02;96950.03;;;15.27;100.00
36242;BME280;22283;42.748;12.732;2022-09-27T01:52:17;96939.69;;;15.32;100.00
36242;BME280;22283;42.748;12.732;2022-09-27T01:57:23;96929.84;;;15.40;100.00
36242;BME280;22283;42.748;12.732;2022-09-27T02:02:26;96903.00;;;15.42;100.00
36242;BME280;22283;42.748;12.732;2022-09-27T02:07:59;96897.56;;;15.27;100.00
36242;BME280;22283;42.748;12.732;2022-09-27T02:18:17;96870.94;;;15.19;100.00
36242;BME280;22283;42.748;12.732;2022-09-27T02:23:26;96867.41;;;15.27;100.00
36242;BME280;22283;42.748;12.732;2022-09-27T02:28:41;96856.75;;;15.27;100.00
36242;BME280;22283;42.748;12.732;2022-09-27T02:34:00;96841.25;;;15.30;100.00
36242;BME280;22283;42.748;12.732;2022-09-27T02:39:05;96838.81;;;15.20;100.00
36242;BME280;22283;42.748;12.732;2022-09-27T02:44:09;96848.47;;;15.21;100.00
36242;BME280;22283;42.748;12.732;2022-09-27T02:49:38;96855.44;;;15.22;99.98
36242;BME280;22283;42.748;12.732;2022-09-27T03:00:32;96876.31;;;15.11;100.00
36242;BME280;22283;42.748;12.732;2022-09-27T03:11:03;96876.78;;;15.14;100.00
36242;BME280;22283;42.748;12.732;2022-09-27T03:16:05;96876.47;;;15.09;100.00
36242;BME280;22283;42.748;12.732;2022-09-27T03:21:29;96869.47;;;15.08;100.00
36242;BME280;22283;42.748;12.732;2022-09-27T03:26:30;96878.78;;;15.20;99.37
36242;BME280;22283;42.748;12.732;2022-09-27T03:31:31;96868.47;;;15.17;98.81
36242;BME280;22283;42.748;12.732;2022-09-27T03:36:50;96859.47;;;15.18;98.35
36242;BME280;22283;42.748;12.732;2022-09-27T03:41:52;96850.78;;;15.16;97.58
36242;BME280;22283;42.748;12.732;2022-09-27T03:46:53;96843.84;;;15.07;98.45
36242;BME280;22283;42.748;12.732;2022-09-27T03:51:54;96849.88;;;15.01;98.90
36242;BME280;22283;42.748;12.732;2022-09-27T03:56:54;96849.88;;;15.01;98.18
36242;BME280;22283;42.748;12.732;2022-09-27T04:01:56;96848.03;;;15.02;97.90
36242;BME280;22283;42.748;12.732;2022-09-27T04:07:16;96843.22;;;14.97;98.25
36242;BME280;22283;42.748;12.732;2022-09-27T04:12:17;96845.88;;;15.05;97.05
36242;BME280;22283;42.748;12.732;2022-09-27T04:17:18;96849.19;;;14.99;96.66
36242;BME280;22283;42.748;12.732;2022-09-27T04:22:42;96845.41;;;14.85;97.96
36242;BME280;22283;42.748;12.732;2022-09-27T04:27:45;96847.59;;;14.73;98.44
36242;BME280;22283;42.748;12.732;2022-09-27T04:32:48;96843.63;;;14.61;99.52
36242;BME280;22283;42.748;12.732;2022-09-27T04:38:07;96839.97;;;14.54;100.00
36242;BME280;22283;42.748;12.732;2022-09-27T04:43:08;96839.16;;;14.54;100.00
36242;BME280;22283;42.748;12.732;2022-09-27T04:48:09;96828.31;;;14.63;100.00
36242;BME280;22283;42.748;12.732;2022-09-27T04:53:13;96820.63;;;14.68;99.98
36242;BME280;22283;42.748;12.732;2022-09-27T04:58:15;96818.66;;;14.70;99.18
36242;BME280;22283;42.748;12.732;2022-09-27T05:03:17;96829.31;;;14.70;98.67
36242;BME280;22283;42.748;12.732;2022-09-27T05:08:31;96831.78;;;14.72;98.37
36242;BME280;22283;42.748;12.732;2022-09-27T05:13:51;96821.97;;;14.64;98.86
36242;BME280;22283;42.748;12.732;2022-09-27T05:18:52;96829.94;;;14.72;98.61
36242;BME280;22283;42.748;12.732;2022-09-27T05:24:13;96837.44;;;14.85;98.50
36242;BME280;22283;42.748;12.732;2022-09-27T05:29:14;96835.72;;;14.92;97.41
36242;BME280;22283;42.748;12.732;2022-09-27T05:34:19;96845.53;;;15.00;96.24
36242;BME280;22283;42.748;12.732;2022-09-27T05:39:30;96841.34;;;15.14;95.31
36242;BME280;22283;42.748;12.732;2022-09-27T05:44:31;96849.38;;;15.45;93.54
36242;BME280;22283;42.748;12.732;2022-09-27T05:49:33;96837.63;;;15.93;90.62
36242;BME280;22283;42.748;12.732;2022-09-27T05:54:36;96836.34;;;16.27;88.15
36242;BME280;22283;42.748;12.732;2022-09-27T05:59:38;96839.72;;;16.44;87.67
36242;BME280;22283;42.748;12.732;2022-09-27T06:04:55;96832.78;;;16.72;86.11
36242;BME280;22283;42.748;12.732;2022-09-27T06:10:16;96846.00;;;17.33;83.05
36242;BME280;22283;42.748;12.732;2022-09-27T06:15:17;96840.97;;;17.75;80.82
36242;BME280;22283;42.748;12.732;2022-09-27T06:20:19;96842.66;;;17.97;80.08
36242;BME280;22283;42.748;12.732;2022-09-27T06:25:21;96836.41;;;17.90;79.73
36242;BME280;22283;42.748;12.732;2022-09-27T06:30:45;96834.94;;;18.09;78.87
36242;BME280;22283;42.748;12.732;2022-09-27T06:35:55;96844.72;;;18.38;78.45
36242;BME280;22283;42.748;12.732;2022-09-27T06:41:00;96847.47;;;18.73;76.80
36242;BME280;22283;42.748;12.732;2022-09-27T06:46:12;96852.41;;;18.97;76.18
36242;BME280;22283;42.748;12.732;2022-09-27T06:51:36;96834.81;;;19.23;75.47
36242;BME280;22283;42.748;12.732;2022-09-27T06:56:37;96829.94;;;19.33;74.72
36242;BME280;22283;42.748;12.732;2022-09-27T07:01:38;96835.44;;;19.66;74.65
36242;BME280;22283;42.748;12.732;2022-09-27T07:06:58;96835.88;;;19.70;73.36
36242;BME280;22283;42.748;12.732;2022-09-27T07:12:03;96845.38;;;19.31;74.06
36242;BME280;22283;42.748;12.732;2022-09-27T07:17:05;96861.44;;;18.89;76.70
36242;BME280;22283;42.748;12.732;2022-09-27T07:22:15;96863.53;;;18.73;78.04
36242;BME280;22283;42.748;12.732;2022-09-27T07:27:19;96866.72;;;18.83;77.56
36242;BME280;22283;42.748;12.732;2022-09-27T07:32:20;96865.66;;;19.05;76.70
36242;BME280;22283;42.748;12.732;2022-09-27T07:37:21;96876.88;;;19.57;75.49
36242;BME280;22283;42.748;12.732;2022-09-27T07:42:22;96883.06;;;19.57;74.43
36242;BME280;22283;42.748;12.732;2022-09-27T07:47:25;96886.91;;;19.41;75.53
36242;BME280;22283;42.748;12.732;2022-09-27T07:52:56;96881.94;;;19.38;76.70
36242;BME280;22283;42.748;12.732;2022-09-27T07:58:25;96882.59;;;19.47;73.57
36242;BME280;22283;42.748;12.732;2022-09-27T08:03:29;96882.09;;;19.72;72.74
36242;BME280;22283;42.748;12.732;2022-09-27T08:08:32;96867.84;;;20.32;68.57
36242;BME280;22283;42.748;12.732;2022-09-27T08:13:35;96875.56;;;20.95;64.58
36242;BME280;22283;42.748;12.732;2022-09-27T08:18:37;96875.66;;;21.53;60.74
36242;BME280;22283;42.748;12.732;2022-09-27T08:24:00;96871.88;;;21.68;60.07
36242;BME280;22283;42.748;12.732;2022-09-27T08:29:06;96875.41;;;21.61;60.86
36242;BME280;22283;42.748;12.732;2022-09-27T08:34:12;96874.78;;;22.11;58.14
36242;BME280;22283;42.748;12.732;2022-09-27T08:39:13;96884.59;;;22.37;56.66
36242;BME280;22283;42.748;12.732;2022-09-27T08:49:38;96879.41;;;21.97;58.86
36242;BME280;22283;42.748;12.732;2022-09-27T08:54:41;96864.53;;;21.95;57.10
36242;BME280;22283;42.748;12.732;2022-09-27T08:59:51;96869.13;;;21.81;54.41
36242;BME280;22283;42.748;12.732;2022-09-27T09:05:24;96864.88;;;22.05;54.83
36242;BME280;22283;42.748;12.732;2022-09-27T09:32:32;96846.69;;;22.64;52.57
36242;BME280;22283;42.748;12.732;2022-09-27T09:37:43;96845.81;;;22.70;51.55
36242;BME280;22283;42.748;12.732;2022-09-27T09:42:56;96835.19;;;22.50;52.50
36242;BME280;22283;42.748;12.732;2022-09-27T09:53:13;96838.91;;;22.49;52.04
36242;BME280;22283;42.748;12.732;2022-09-27T10:03:24;96831.28;;;22.96;49.90
36242;BME280;22283;42.748;12.732;2022-09-27T10:08:26;96828.22;;;22.92;50.20
36242;BME280;22283;42.748;12.732;2022-09-27T10:13:42;96830.59;;;22.57;51.88
36242;BME280;22283;42.748;12.732;2022-09-27T10:18:45;96816.47;;;22.80;51.49
36242;BME280;22283;42.748;12.732;2022-09-27T10:24:04;96825.31;;;22.87;49.17
36242;BME280;22283;42.748;12.732;2022-09-27T10:29:30;96811.31;;;23.22;50.38
36242;BME280;22283;42.748;12.732;2022-09-27T10:34:41;96817.38;;;23.36;48.97
36242;BME280;22283;42.748;12.732;2022-09-27T10:39:44;96804.25;;;23.39;50.55
36242;BME280;22283;42.748;12.732;2022-09-27T10:44:45;96804.66;;;23.91;48.71
36242;BME280;22283;42.748;12.732;2022-09-27T10:50:04;96787.19;;;23.94;50.23
36242;BME280;22283;42.748;12.732;2022-09-27T10:55:22;96790.06;;;24.11;48.45
36242;BME280;22283;42.748;12.732;2022-09-27T11:00:30;96775.41;;;24.30;46.67
36242;BME280;22283;42.748;12.732;2022-09-27T11:05:37;96776.78;;;24.51;48.65
36242;BME280;22283;42.748;12.732;2022-09-27T11:10:39;96758.56;;;24.93;47.38
36242;BME280;22283;42.748;12.732;2022-09-27T11:21:46;96752.44;;;24.86;47.34
36242;BME280;22283;42.748;12.732;2022-09-27T11:42:59;96752.22;;;23.69;47.90
36242;BME280;22283;42.748;12.732;2022-09-27T11:48:42;96759.19;;;23.40;49.97
36242;BME280;22283;42.748;12.732;2022-09-27T12:10:02;96746.13;;;23.06;49.80
36242;BME280;22283;42.748;12.732;2022-09-27T12:15:34;96745.88;;;22.65;50.17
36242;BME280;22283;42.748;12.732;2022-09-27T12:20:41;96734.38;;;22.57;50.00
36242;BME280;22283;42.748;12.732;2022-09-27T12:25:44;96737.56;;;22.23;50.90
36242;BME280;22283;42.748;12.732;2022-09-27T12:30:57;96746.75;;;22.15;51.74
36242;BME280;22283;42.748;12.732;2022-09-27T12:36:04;96738.41;;;22.23;54.49
36242;BME280;22283;42.748;12.732;2022-09-27T12:41:09;96731.81;;;22.63;52.27
36242;BME280;22283;42.748;12.732;2022-09-27T12:51:40;96741.97;;;22.42;53.07
36242;BME280;22283;42.748;12.732;2022-09-27T13:12:54;96739.03;;;21.55;65.98
36242;BME280;22283;42.748;12.732;2022-09-27T13:17:57;96743.88;;;21.40;66.61
36242;BME280;22283;42.748;12.732;2022-09-27T13:49:25;96713.94;;;21.61;56.50
36242;BME280;22283;42.748;12.732;2022-09-27T13:54:56;96709.13;;;21.32;56.83
36242;BME280;22283;42.748;12.732;2022-09-27T14:00:04;96718.00;;;21.39;56.82
36242;BME280;22283;42.748;12.732;2022-09-27T14:05:25;96713.22;;;21.41;56.27
36242;BME280;22283;42.748;12.732;2022-09-27T14:10:28;96726.09;;;21.39;55.19
36242;BME280;22283;42.748;12.732;2022-09-27T14:15:31;96716.75;;;21.42;53.75
36242;BME280;22283;42.748;12.732;2022-09-27T14:20:39;96702.50;;;21.28;54.71
36242;BME280;22283;42.748;12.732;2022-09-27T14:25:51;96702.50;;;21.28;54.58
36242;BME280;22283;42.748;12.732;2022-09-27T14:31:13;96708.72;;;21.35;55.54
36242;BME280;22283;42.748;12.732;2022-09-27T14:36:34;96706.78;;;21.49;55.12
36242;BME280;22283;42.748;12.732;2022-09-27T14:41:58;96709.41;;;21.62;55.68
36242;BME280;22283;42.748;12.732;2022-09-27T14:47:22;96698.03;;;21.53;55.60
36242;BME280;22283;42.748;12.732;2022-09-27T14:52:30;96710.53;;;21.41;56.87
36242;BME280;22283;42.748;12.732;2022-09-27T14:57:33;96711.09;;;21.50;56.18
36242;BME280;22283;42.748;12.732;2022-09-27T15:02:35;96720.66;;;21.46;56.73
36242;BME280;22283;42.748;12.732;2022-09-27T15:07:37;96714.28;;;21.40;56.43
36242;BME280;22283;42.748;12.732;2022-09-27T15:12:38;96719.53;;;21.15;57.62
36242;BME280;22283;42.748;12.732;2022-09-27T15:17:41;96726.78;;;21.15;57.91
36242;BME280;22283;42.748;12.732;2022-09-27T15:22:43;96734.22;;;21.12;58.53
36242;BME280;22283;42.748;12.732;2022-09-27T15:27:52;96744.81;;;20.94;61.75
36242;BME280;22283;42.748;12.732;2022-09-27T15:32:54;96743.69;;;20.50;69.39
36242;BME280;22283;42.748;12.732;2022-09-27T15:38:19;96740.75;;;19.79;72.47
36242;BME280;22283;42.748;12.732;2022-09-27T15:48:33;96757.44;;;19.13;77.71
36242;BME280;22283;42.748;12.732;2022-09-27T15:53:41;96761.03;;;18.92;77.75
36242;BME280;22283;42.748;12.732;2022-09-27T15:58:42;96757.72;;;18.90;76.07
36242;BME280;22283;42.748;12.732;2022-09-27T16:03:43;96746.69;;;19.06;71.53
36242;BME280;22283;42.748;12.732;2022-09-27T16:08:44;96749.47;;;18.91;71.21
36242;BME280;22283;42.748;12.732;2022-09-27T16:13:45;96760.97;;;18.79;74.62
36242;BME280;22283;42.748;12.732;2022-09-27T16:18:47;96769.47;;;18.61;75.03
36242;BME280;22283;42.748;12.732;2022-09-27T16:23:48;96772.78;;;18.35;80.40
36242;BME280;22283;42.748;12.732;2022-09-27T16:28:48;96752.44;;;17.91;83.33
36242;BME280;22283;42.748;12.732;2022-09-27T16:33:49;96765.66;;;17.56;87.13
36242;BME280;22283;42.748;12.732;2022-09-27T16:38:51;96754.28;;;17.33;89.60
36242;BME280;22283;42.748;12.732;2022-09-27T16:43:52;96761.22;;;17.12;90.13
36242;BME280;22283;42.748;12.732;2022-09-27T16:48:54;96785.38;;;17.04;90.74
36242;BME280;22283;42.748;12.732;2022-09-27T16:53:55;96774.28;;;17.22;86.74
36242;BME280;22283;42.748;12.732;2022-09-27T16:58:55;96789.50;;;17.21;87.58
36242;BME280;22283;42.748;12.732;2022-09-27T17:03:56;96801.22;;;17.20;86.30
36242;BME280;22283;42.748;12.732;2022-09-27T17:09:01;96816.41;;;17.05;87.19
36242;BME280;22283;42.748;12.732;2022-09-27T17:14:02;96798.47;;;16.84;86.00
36242;BME280;22283;42.748;12.732;2022-09-27T17:19:02;96803.53;;;16.79;83.54
36242;BME280;22283;42.748;12.732;2022-09-27T17:24:03;96800.63;;;16.51;84.63
36242;BME280;22283;42.748;12.732;2022-09-27T17:29:04;96802.25;;;16.37;84.57
36242;BME280;22283;42.748;12.732;2022-09-27T17:34:07;96800.34;;;16.23;85.41
36242;BME280;22283;42.748;12.732;2022-09-27T17:39:12;96803.56;;;16.18;85.64
36242;BME280;22283;42.748;12.732;2022-09-27T17:44:14;96810.41;;;16.21;85.19
36242;BME280;22283;42.748;12.732;2022-09-27T17:49:16;96803.28;;;16.13;85.24
36242;BME280;22283;42.748;12.732;2022-09-27T17:54:35;96806.66;;;16.07;85.21
36242;BME280;22283;42.748;12.732;2022-09-27T17:59:36;96800.75;;;15.97;86.58
36242;BME280;22283;42.748;12.732;2022-09-27T18:04:36;96802.59;;;15.96;86.82
36242;BME280;22283;42.748;12.732;2022-09-27T18:09:38;96789.13;;;15.90;86.29
36242;BME280;22283;42.748;12.732;2022-09-27T18:14:38;96787.13;;;15.92;86.13
36242;BME280;22283;42.748;12.732;2022-09-27T18:19:39;96795.16;;;15.84;86.92
36242;BME280;22283;42.748;12.732;2022-09-27T18:24:40;96783.56;;;15.77;86.91
36242;BME280;22283;42.748;12.732;2022-09-27T18:29:41;96804.56;;;15.71;86.92
36242;BME280;22283;42.748;12.732;2022-09-27T18:34:41;96798.25;;;15.72;85.71
36242;BME280;22283;42.748;12.732;2022-09-27T18:39:42;96816.25;;;15.70;85.71
36242;BME280;22283;42.748;12.732;2022-09-27T18:44:42;96839.44;;;15.62;85.18
36242;BME280;22283;42.748;12.732;2022-09-27T18:49:43;96852.13;;;15.68;84.32
36242;BME280;22283;42.748;12.732;2022-09-27T18:54:44;96860.22;;;15.74;83.04
36242;BME280;22283;42.748;12.732;2022-09-27T18:59:44;96869.84;;;15.84;82.53
36242;BME280;22283;42.748;12.732;2022-09-27T19:04:47;96883.84;;;15.86;81.87
36242;BME280;22283;42.748;12.732;2022-09-27T19:09:48;96884.66;;;15.86;81.45
36242;BME280;22283;42.748;12.732;2022-09-27T19:14:49;96876.84;;;15.85;81.05
36242;BME280;22283;42.748;12.732;2022-09-27T19:19:51;96889.13;;;15.94;81.53
36242;BME280;22283;42.748;12.732;2022-09-27T19:24:52;96888.00;;;15.88;81.43
36242;BME280;22283;42.748;12.732;2022-09-27T19:29:53;96889.50;;;15.83;81.97
36242;BME280;22283;42.748;12.732;2022-09-27T19:34:58;96898.88;;;15.79;83.25
36242;BME280;22283;42.748;12.732;2022-09-27T19:39:59;96903.53;;;15.85;81.57
36242;BME280;22283;42.748;12.732;2022-09-27T19:45:00;96905.50;;;15.83;80.21
36242;BME280;22283;42.748;12.732;2022-09-27T19:50:00;96913.50;;;15.83;81.21
36242;BME280;22283;42.748;12.732;2022-09-27T19:55:01;96924.22;;;15.74;83.06
36242;BME280;22283;42.748;12.732;2022-09-27T20:00:02;96930.59;;;15.65;83.07
36242;BME280;22283;42.748;12.732;2022-09-27T20:05:05;96931.44;;;15.66;83.08
36242;BME280;22283;42.748;12.732;2022-09-27T20:10:06;96939.88;;;15.78;82.06
36242;BME280;22283;42.748;12.732;2022-09-27T20:15:08;96949.16;;;15.90;81.73
36242;BME280;22283;42.748;12.732;2022-09-27T20:20:08;96949.59;;;16.02;81.05
36242;BME280;22283;42.748;12.732;2022-09-27T20:25:09;96947.06;;;16.08;81.23
36242;BME280;22283;42.748;12.732;2022-09-27T20:30:10;96966.00;;;16.21;81.54
36242;BME280;22283;42.748;12.732;2022-09-27T20:35:11;96962.69;;;16.11;81.60
36242;BME280;22283;42.748;12.732;2022-09-27T20:40:12;96980.41;;;16.12;82.63
36242;BME280;22283;42.748;12.732;2022-09-27T20:45:12;96984.38;;;15.77;86.99
36242;BME280;22283;42.748;12.732;2022-09-27T20:50:14;96994.63;;;15.49;90.47
36242;BME280;22283;42.748;12.732;2022-09-27T20:55:15;96990.81;;;15.27;92.56
36242;BME280;22283;42.748;12.732;2022-09-27T21:00:16;97003.34;;;15.02;94.92
36242;BME280;22283;42.748;12.732;2022-09-27T21:05:17;97009.00;;;14.91;95.98
36242;BME280;22283;42.748;12.732;2022-09-27T21:10:18;97014.34;;;14.83;96.24
36242;BME280;22283;42.748;12.732;2022-09-27T21:15:19;97016.16;;;14.82;96.62
36242;BME280;22283;42.748;12.732;2022-09-27T21:20:20;97026.63;;;14.67;99.33
36242;BME280;22283;42.748;12.732;2022-09-27T21:25:20;97049.38;;;14.45;100.00
36242;BME280;22283;42.748;12.732;2022-09-27T21:30:21;97035.84;;;14.31;100.00
36242;BME280;22283;42.748;12.732;2022-09-27T21:35:23;97047.50;;;14.30;100.00
36242;BME280;22283;42.748;12.732;2022-09-27T21:40:24;97039.50;;;14.21;100.00
36242;BME280;22283;42.748;12.732;2022-09-27T21:45:27;97030.34;;;14.24;100.00
36242;BME280;22283;42.748;12.732;2022-09-27T21:50:29;97026.66;;;14.25;100.00
36242;BME280;22283;42.748;12.732;2022-09-27T21:55:30;97019.50;;;14.17;100.00
36242;BME280;22283;42.748;12.732;2022-09-27T22:00:31;97018.50;;;14.10;100.00
36242;BME280;22283;42.748;12.732;2022-09-27T22:05:31;96993.88;;;14.08;100.00
36242;BME280;22283;42.748;12.732;2022-09-27T22:10:33;96990.56;;;14.06;100.00
36242;BME280;22283;42.748;12.732;2022-09-27T22:15:35;96992.84;;;14.01;100.00
36242;BME280;22283;42.748;12.732;2022-09-27T22:20:36;96997.84;;;14.04;100.00
36242;BME280;22283;42.748;12.732;2022-09-27T22:25:37;96992.69;;;13.94;100.00
36242;BME280;22283;42.748;12.732;2022-09-27T22:30:37;96992.78;;;13.85;100.00
36242;BME280;22283;42.748;12.732;2022-09-27T22:35:46;96997.09;;;13.77;100.00
36242;BME280;22283;42.748;12.732;2022-09-27T22:40:54;96997.06;;;13.69;100.00
36242;BME280;22283;42.748;12.732;2022-09-27T22:45:56;96984.50;;;13.53;100.00
36242;BME280;22283;42.748;12.732;2022-09-27T22:51:00;96999.75;;;13.43;100.00
36242;BME280;22283;42.748;12.732;2022-09-27T23:01:07;97008.19;;;13.39;100.00
36242;BME280;22283;42.748;12.732;2022-09-27T23:06:08;97011.16;;;13.36;100.00
36242;BME280;22283;42.748;12.732;2022-09-27T23:11:11;97014.31;;;13.31;100.00
36242;BME280;22283;42.748;12.732;2022-09-27T23:16:15;97012.31;;;13.33;100.00
36242;BME280;22283;42.748;12.732;2022-09-27T23:21:17;97021.75;;;13.27;100.00
36242;BME280;22283;42.748;12.732;2022-09-27T23:26:18;97005.81;;;13.27;100.00
36242;BME280;22283;42.748;12.732;2022-09-27T23:31:25;97005.81;;;13.27;100.00
36242;BME280;22283;42.748;12.732;2022-09-27T23:36:29;97012.69;;;13.20;100.00
36242;BME280;22283;42.748;12.732;2022-09-27T23:41:29;97019.78;;;13.12;100.00
36242;BME280;22283;42.748;12.732;2022-09-27T23:46:30;97021.38;;;13.04;100.00
36242;BME280;22283;42.748;12.732;2022-09-27T23:51:31;97006.38;;;12.95;100.00
36242;BME280;22283;42.748;12.732;2022-09-27T23:56:31;97003.88;;;12.94;100.00
